Time;durP1;ratioP1;P1;durP2;ratioP2;P2;SDS_P1;SDS_P2;PMS_P1;PMS_P2;Temp;Humidity;BMP_temperature;BMP_pressure;BME280_temperature;BME280_humidity;BME280_pressure;Samples;Min_cycle;Max_cycle;Signal;HPM_P1;HPM_P2
2023/10/02 00:01:10;;;;;;;27.58;14.88;;;;;;;21.26;72.71;101490.94;5075809;28;20044;-62
2023/10/02 00:03:40;;;;;;;27.73;15.70;;;;;;;21.14;73.09;101497.50;5078395;28;20694;-62
2023/10/02 00:06:09;;;;;;;31.05;15.98;;;;;;;21.23;72.72;101495.28;5093931;28;20047;-61
2023/10/02 00:08:48;;;;;;;30.85;15.15;;;;;;;21.24;72.79;101490.50;5093644;28;20063;-63
2023/10/02 00:11:36;;;;;;;30.42;15.32;;;;;;;21.02;73.80;101499.59;5076281;28;20048;-61
2023/10/02 00:14:19;;;;;;;29.58;16.05;;;;;;;20.85;74.95;101499.97;5060572;28;20048;-64
2023/10/02 00:17:00;;;;;;;29.02;14.95;;;;;;;20.85;75.09;101503.56;5058834;28;20055;-62
2023/10/02 00:19:49;;;;;;;28.23;15.52;;;;;;;20.92;74.48;101502.94;5093724;28;20051;-62
2023/10/02 00:25:17;;;;;;;27.08;15.30;;;;;;;20.99;74.25;101508.75;5093353;28;20056;-62
2023/10/02 00:27:51;;;;;;;29.23;15.23;;;;;;;21.21;73.59;101494.03;5058796;28;20055;-62
2023/10/02 00:30:30;;;;;;;29.05;15.10;;;;;;;21.33;73.30;101504.28;5060096;28;20410;-61
2023/10/02 00:32:58;;;;;;;35.05;15.13;;;;;;;21.32;73.17;101503.50;5058506;28;20052;-61
2023/10/02 00:35:27;;;;;;;29.42;15.60;;;;;;;21.24;73.18;101504.50;5075389;28;20059;-61
2023/10/02 00:37:57;;;;;;;29.95;14.70;;;;;;;21.15;73.79;101509.50;5068960;28;20058;-62
2023/10/02 00:40:28;;;;;;;28.05;15.18;;;;;;;21.22;73.34;101504.06;5076034;28;20411;-62
2023/10/02 00:43:33;;;;;;;29.55;15.27;;;;;;;21.13;73.56;101509.88;5075142;28;20075;-60
2023/10/02 00:45:49;;;;;;;28.67;15.73;;;;;;;21.20;73.27;101498.81;5073903;28;20059;-61
2023/10/02 00:48:26;;;;;;;27.33;14.68;;;;;;;21.28;73.01;101502.59;5073261;28;20057;-62
2023/10/02 00:50:58;;;;;;;33.08;15.48;;;;;;;21.14;73.58;101491.91;5060391;28;20443;-62
2023/10/02 00:53:41;;;;;;;27.67;14.25;;;;;;;20.90;74.25;101497.69;5093095;28;20055;-64
2023/10/02 00:56:20;;;;;;;27.08;14.43;;;;;;;20.80;75.37;101498.25;5074838;28;20048;-61
2023/10/02 00:59:00;;;;;;;29.52;15.65;;;;;;;20.95;74.74;101489.03;5076112;28;20048;-62
2023/10/02 01:01:29;;;;;;;31.42;15.63;;;;;;;20.95;74.57;101505.00;5078905;28;20423;-61
2023/10/02 01:04:10;;;;;;;32.08;16.25;;;;;;;20.97;75.01;101499.88;5078580;28;20051;-63
2023/10/02 01:09:27;;;;;;;31.17;15.52;;;;;;;20.95;74.77;101499.41;5086252;28;20044;-60
2023/10/02 01:11:57;;;;;;;30.60;15.13;;;;;;;21.00;74.72;101497.19;5058190;28;20061;-63
2023/10/02 01:14:51;;;;;;;31.77;15.80;;;;;;;20.89;74.67;101495.25;5086208;28;20043;-63
2023/10/02 01:17:17;;;;;;;30.77;15.43;;;;;;;20.81;75.67;101493.47;5096540;28;20438;-61
2023/10/02 01:19:54;;;;;;;28.70;15.68;;;;;;;20.80;75.34;101497.47;5096240;28;20055;-62
2023/10/02 01:22:28;;;;;;;29.67;14.65;;;;;;;20.73;76.12;101489.66;5060698;28;20049;-63
2023/10/02 01:25:12;;;;;;;27.88;14.43;;;;;;;20.73;75.69;101500.88;5071183;28;20052;-62
2023/10/02 01:27:47;;;;;;;29.73;15.07;;;;;;;20.80;75.72;101489.06;5080673;28;20622;-61
2023/10/02 01:30:21;;;;;;;29.88;15.48;;;;;;;20.83;75.49;101482.72;5096414;28;20063;-61
2023/10/02 01:35:55;;;;;;;31.60;15.50;;;;;;;20.74;75.46;101482.91;5045415;28;20061;-61
2023/10/02 01:38:32;;;;;;;32.40;16.15;;;;;;;20.69;75.87;101485.19;5076342;28;20040;-62
2023/10/02 01:41:05;;;;;;;30.92;15.90;;;;;;;20.75;75.59;101478.94;5096322;28;20050;-62
2023/10/02 01:43:45;;;;;;;31.80;16.25;;;;;;;20.64;75.60;101477.84;5078758;28;20052;-61
2023/10/02 01:46:22;;;;;;;28.38;15.18;;;;;;;20.64;75.80;101480.66;5057459;28;20057;-62
2023/10/02 01:48:51;;;;;;;30.52;15.98;;;;;;;20.59;75.79;101480.13;5083833;28;20063;-62
2023/10/02 01:51:20;;;;;;;31.20;15.05;;;;;;;20.58;76.31;101470.09;5095863;28;20040;-62
2023/10/02 01:53:50;;;;;;;36.72;15.88;;;;;;;20.55;76.29;101480.03;5060805;28;20062;-61
2023/10/02 01:56:19;;;;;;;32.60;15.68;;;;;;;20.51;76.61;101472.72;5095653;28;20077;-61
2023/10/02 01:58:50;;;;;;;32.58;15.32;;;;;;;20.51;76.63;101470.75;5096107;28;20036;-62
2023/10/02 02:01:20;;;;;;;33.33;16.00;;;;;;;20.56;76.16;101473.25;5095746;28;20066;-62
2023/10/02 02:03:51;;;;;;;30.50;15.85;;;;;;;20.53;76.16;101465.59;5077198;28;20063;-61
2023/10/02 02:06:21;;;;;;;38.83;15.95;;;;;;;20.49;76.81;101464.69;5095696;28;20062;-62
2023/10/02 02:08:52;;;;;;;31.08;15.95;;;;;;;20.54;76.15;101460.81;5077417;28;20063;-63
2023/10/02 02:11:23;;;;;;;33.70;15.48;;;;;;;20.47;76.47;101460.66;5095106;28;20505;-62
2023/10/02 02:13:52;;;;;;;31.95;16.13;;;;;;;20.48;76.46;101454.69;5076077;28;20055;-62
2023/10/02 02:16:38;;;;;;;31.87;16.37;;;;;;;20.28;76.95;101455.75;5094797;28;20055;-62
2023/10/02 02:19:07;;;;;;;32.28;15.68;;;;;;;20.30;77.13;101463.78;5079811;28;20040;-61
2023/10/02 02:21:35;;;;;;;35.33;16.35;;;;;;;20.34;77.15;101456.28;5094973;28;20044;-63
2023/10/02 02:24:03;;;;;;;33.90;16.10;;;;;;;20.19;78.00;101462.72;5077125;28;20059;-63
2023/10/02 02:26:31;;;;;;;30.00;16.30;;;;;;;20.30;77.72;101456.22;5077565;28;20052;-62
2023/10/02 02:29:01;;;;;;;31.98;16.00;;;;;;;20.14;78.21;101464.56;5095334;28;20044;-62
2023/10/02 02:31:29;;;;;;;29.42;15.70;;;;;;;20.33;77.53;101449.88;5114039;28;20075;-62
2023/10/02 02:34:14;;;;;;;30.17;15.15;;;;;;;20.40;77.28;101447.25;5095247;28;20056;-61
2023/10/02 02:36:46;;;;;;;32.80;15.80;;;;;;;20.29;76.97;101454.59;5078287;28;20051;-63
2023/10/02 02:39:17;;;;;;;33.47;16.38;;;;;;;20.28;77.10;101446.53;5057268;28;20048;-61
2023/10/02 02:42:08;;;;;;;30.50;15.45;;;;;;;19.98;78.38;101455.34;5060370;28;20047;-61
2023/10/02 02:44:39;;;;;;;33.08;16.25;;;;;;;19.88;79.29;101455.88;5077908;28;20064;-62
2023/10/02 02:47:08;;;;;;;28.55;15.52;;;;;;;20.06;78.83;101461.94;5074238;28;20045;-61
2023/10/02 02:50:27;;;;;;;32.55;15.63;;;;;;;20.07;78.67;101461.56;5079940;28;20048;-61
2023/10/02 02:52:32;;;;;;;31.77;15.88;;;;;;;19.87;79.23;101459.03;5083803;28;20059;-62
2023/10/02 02:55:12;;;;;;;33.35;16.67;;;;;;;19.97;79.77;101448.13;5090416;28;20048;-61
2023/10/02 02:57:45;;;;;;;30.58;15.65;;;;;;;20.02;78.96;101453.44;5077216;28;20560;-62
2023/10/02 03:00:29;;;;;;;31.13;15.95;;;;;;;20.10;78.90;101448.88;5094064;28;20052;-61
2023/10/02 03:03:00;;;;;;;29.58;15.48;;;;;;;20.06;79.08;101445.97;5094531;28;20048;-62
2023/10/02 03:05:40;;;;;;;30.10;16.02;;;;;;;20.05;78.77;101449.09;5094488;28;20036;-61
2023/10/02 03:08:11;;;;;;;30.38;16.38;;;;;;;20.00;79.23;101441.00;5094985;28;20059;-61
2023/10/02 03:10:40;;;;;;;;;;;;;;;19.84;79.54;101449.34;5094999;28;20059;-64
2023/10/02 03:13:15;;;;;;;32.75;16.35;;;;;;;19.72;80.55;101446.63;5076814;28;19920;-61
2023/10/02 03:15:47;;;;;;;29.15;16.42;;;;;;;19.71;80.86;101439.44;5094213;28;20514;-61
2023/10/02 03:18:31;;;;;;;30.70;15.93;;;;;;;19.39;81.77;101442.47;5093989;28;20075;-61
2023/10/02 03:21:22;;;;;;;31.23;15.85;;;;;;;19.48;82.60;101431.94;5078261;28;20044;-62
2023/10/02 03:23:49;;;;;;;31.75;15.80;;;;;;;19.69;81.36;101438.16;5093559;28;20047;-60
2023/10/02 03:26:37;;;;;;;32.03;15.57;;;;;;;19.61;81.44;101434.38;5094040;28;20693;-60
2023/10/02 03:29:16;;;;;;;32.60;15.43;;;;;;;19.70;81.24;101431.41;5094384;28;20068;-60
2023/10/02 03:31:49;;;;;;;31.67;15.95;;;;;;;19.37;82.37;101433.66;5075286;28;20044;-61
2023/10/02 03:34:27;;;;;;;31.02;15.32;;;;;;;19.46;82.71;101434.28;5082891;28;20052;-60
2023/10/02 03:37:14;;;;;;;31.38;16.33;;;;;;;19.54;81.90;101428.56;5093647;28;20055;-61
2023/10/02 03:39:59;;;;;;;35.17;16.08;;;;;;;19.44;82.45;101429.06;5094312;28;20055;-60
2023/10/02 03:42:36;;;;;;;31.52;15.70;;;;;;;19.57;82.25;101424.22;5076226;28;20064;-63
2023/10/02 03:45:04;;;;;;;29.52;15.52;;;;;;;19.69;81.82;101425.00;5093448;28;20055;-64
2023/10/02 03:47:35;;;;;;;31.85;14.98;;;;;;;19.70;81.04;101423.81;5075766;28;20055;-61
2023/10/02 03:50:10;;;;;;;33.95;16.27;;;;;;;19.55;81.73;101429.38;5075663;28;20767;-62
2023/10/02 03:52:41;;;;;;;31.05;15.35;;;;;;;19.58;81.78;101423.09;5093474;28;20051;-60
2023/10/02 03:55:17;;;;;;;32.70;16.00;;;;;;;19.52;81.56;101424.50;5093266;28;20040;-61
2023/10/02 03:57:49;;;;;;;32.20;16.35;;;;;;;19.40;82.08;101424.53;5093119;28;20059;-63
2023/10/02 04:02:57;;;;;;;31.45;15.77;;;;;;;19.35;83.00;101422.84;5092515;28;20055;-64
2023/10/02 04:05:44;;;;;;;31.25;15.63;;;;;;;19.29;82.54;101415.81;5093149;28;20051;-61
2023/10/02 04:08:21;;;;;;;34.47;16.35;;;;;;;19.21;83.61;101414.00;5061950;28;20510;-62
2023/10/02 04:10:55;;;;;;;30.85;16.02;;;;;;;19.39;83.07;101414.53;5060564;28;20040;-66
2023/10/02 04:13:32;;;;;;;33.85;16.05;;;;;;;19.28;83.06;101408.63;5093550;28;20056;-64
2023/10/02 04:18:49;;;;;;;37.50;16.80;;;;;;;19.20;83.73;101417.94;5093400;28;20052;-64
2023/10/02 04:21:25;;;;;;;30.17;15.90;;;;;;;19.24;83.69;101412.47;5093466;28;20056;-65
2023/10/02 04:23:53;;;;;;;29.60;15.48;;;;;;;18.99;85.13;101414.53;5041046;28;20053;-65
2023/10/02 04:26:22;;;;;;;35.55;15.55;;;;;;;19.00;85.42;101419.75;5088158;28;20499;-64
2023/10/02 04:28:56;;;;;;;37.33;16.13;;;;;;;18.84;85.78;101412.47;5093755;28;20055;-64
2023/10/02 04:31:27;;;;;;;30.63;15.57;;;;;;;18.79;86.41;101410.72;5092610;28;20063;-65
2023/10/02 04:34:24;;;;;;;32.35;16.13;;;;;;;18.66;87.51;101411.09;5094620;28;20048;-65
2023/10/02 04:36:52;;;;;;;33.50;15.38;;;;;;;18.51;88.24;101415.44;5096611;28;20039;-65
2023/10/02 04:42:12;;;;;;;;;;;;;;;18.57;88.87;101405.66;5097130;28;20052;-61
2023/10/02 04:44:45;;;;;;;35.85;16.48;;;;;;;18.32;89.92;101409.59;5097423;28;19920;-62
2023/10/02 04:47:19;;;;;;;30.88;15.40;;;;;;;18.03;91.41;101411.78;5096909;28;20562;-61
2023/10/02 04:52:58;;;;;;;34.35;17.02;;;;;;;18.10;91.73;101409.25;5042394;28;20056;-62
2023/10/02 04:55:31;;;;;;;30.55;15.70;;;;;;;18.35;90.86;101417.25;5062967;28;20052;-65
2023/10/02 04:58:14;;;;;;;30.65;15.20;;;;;;;18.25;90.56;101416.91;5042238;28;20040;-65
2023/10/02 05:03:30;;;;;;;29.65;15.35;;;;;;;18.45;89.62;101414.03;5069793;28;20040;-61
2023/10/02 05:05:58;;;;;;;36.22;16.05;;;;;;;18.19;90.34;101413.53;5043958;28;20059;-61
2023/10/02 05:08:34;;;;;;;29.83;15.30;;;;;;;18.13;92.27;101411.31;5048933;28;20048;-61
2023/10/02 05:11:23;;;;;;;35.95;16.38;;;;;;;18.07;92.45;101405.16;5060120;28;20056;-61
2023/10/02 05:16:46;;;;;;;31.80;15.88;;;;;;;18.40;90.06;101405.03;5069103;28;20045;-63
2023/10/02 05:19:17;;;;;;;36.03;16.13;;;;;;;18.18;91.20;101402.72;5064245;28;20065;-62
2023/10/02 05:21:50;;;;;;;31.98;15.95;;;;;;;18.05;91.77;101404.69;5074080;28;20048;-61
2023/10/02 05:24:18;;;;;;;31.95;15.00;;;;;;;18.19;91.53;101405.16;5058259;28;20055;-60
2023/10/02 05:26:47;;;;;;;31.95;15.38;;;;;;;18.22;90.42;101407.25;5041892;28;20055;-61
2023/10/02 05:29:18;;;;;;;31.35;15.25;;;;;;;18.32;90.01;101408.78;5075843;28;20063;-61
2023/10/02 05:31:49;;;;;;;34.22;16.42;;;;;;;18.15;90.71;101407.00;5075210;28;20060;-61
2023/10/02 05:34:24;;;;;;;29.85;16.50;;;;;;;18.18;91.16;101408.31;5058537;28;20070;-63
2023/10/02 05:37:11;;;;;;;33.97;15.95;;;;;;;18.22;90.65;101407.25;5075407;28;20052;-61
2023/10/02 05:39:40;;;;;;;31.23;15.65;;;;;;;18.28;90.21;101411.44;5060611;28;20040;-61
2023/10/02 05:42:13;;;;;;;34.45;16.73;;;;;;;18.06;90.78;101408.28;5057998;28;20049;-61
2023/10/02 05:44:42;;;;;;;31.23;15.85;;;;;;;18.08;90.67;101411.56;5075564;28;20040;-61
2023/10/02 05:47:35;;;;;;;32.92;15.98;;;;;;;17.87;91.95;101404.06;5075080;28;20055;-62
2023/10/02 05:50:32;;;;;;;33.88;16.45;;;;;;;17.83;92.01;101408.72;5057340;28;20068;-62
2023/10/02 05:52:59;;;;;;;37.08;16.92;;;;;;;17.95;91.81;101407.94;5074584;28;20060;-60
2023/10/02 05:55:26;;;;;;;32.80;16.38;;;;;;;18.14;90.87;101405.41;5057512;28;20115;-61
2023/10/02 05:57:54;;;;;;;30.90;16.35;;;;;;;18.24;89.78;101410.50;5075282;28;20060;-62
2023/10/02 06:00:21;;;;;;;34.53;16.13;;;;;;;18.21;89.93;101411.22;5075425;28;20037;-62
2023/10/02 06:02:58;;;;;;;32.15;16.35;;;;;;;18.26;89.53;101404.56;5058523;28;20052;-62
2023/10/02 06:05:29;;;;;;;29.73;15.98;;;;;;;18.22;89.34;101398.09;5075214;28;20064;-61
2023/10/02 06:07:59;;;;;;;36.20;16.55;;;;;;;18.31;88.91;101395.97;5057626;28;20052;-61
2023/10/02 06:10:27;;;;;;;33.78;16.70;;;;;;;18.11;89.73;101403.31;5074763;28;20138;-61
2023/10/02 06:13:05;;;;;;;36.92;16.30;;;;;;;18.05;89.52;101395.50;5073389;28;20059;-62
2023/10/02 06:15:51;;;;;;;33.20;16.33;;;;;;;17.97;90.68;101408.41;5057314;28;20061;-61
2023/10/02 06:18:45;;;;;;;33.30;15.52;;;;;;;18.05;90.43;101404.69;5073042;28;20563;-65
2023/10/02 06:22:15;;;;;;;34.55;17.02;;;;;;;18.12;89.86;101404.09;5039314;28;20055;-67
2023/10/02 06:24:43;;;;;;;38.13;22.08;;;;;;;18.19;89.76;101407.13;5072073;28;20044;-67
2023/10/02 06:27:17;;;;;;;45.45;26.23;;;;;;;18.12;89.48;101409.69;5072264;28;20045;-65
2023/10/02 06:29:45;;;;;;;40.28;18.00;;;;;;;18.06;89.88;101417.47;5068138;28;20484;-65
2023/10/02 06:32:14;;;;;;;36.05;18.63;;;;;;;17.95;90.36;101422.69;5074796;28;20055;-67
2023/10/02 06:34:45;;;;;;;38.83;17.95;;;;;;;17.99;89.48;101422.81;5074952;28;20052;-64
2023/10/02 06:37:18;;;;;;;46.85;24.40;;;;;;;18.15;89.39;101423.75;5067703;28;20059;-65
2023/10/02 06:40:04;;;;;;;35.53;17.55;;;;;;;18.08;88.97;101428.28;5048792;28;20048;-65
2023/10/02 06:42:33;;;;;;;40.03;17.48;;;;;;;18.38;87.71;101432.47;5063527;28;20060;-66
2023/10/02 06:45:05;;;;;;;35.13;17.80;;;;;;;18.26;87.76;101424.09;5067825;28;20427;-65
2023/10/02 06:47:34;;;;;;;38.03;18.05;;;;;;;18.14;88.10;101424.09;5061379;28;20700;-66
2023/10/02 06:50:21;;;;;;;35.25;17.48;;;;;;;17.89;89.52;101440.78;5055790;28;20067;-64
2023/10/02 06:52:49;;;;;;;38.38;17.85;;;;;;;18.06;88.99;101434.22;5070162;28;20055;-65
2023/10/02 06:55:17;;;;;;;38.38;18.50;;;;;;;18.08;88.08;101428.28;5075849;28;20056;-66
2023/10/02 06:57:52;;;;;;;38.65;18.75;;;;;;;18.09;88.80;101433.50;5070673;28;20037;-64
2023/10/02 07:03:28;;;;;;;36.92;17.42;;;;;;;18.09;88.72;101435.47;5048835;28;20052;-66
2023/10/02 07:06:23;;;;;;;41.53;18.23;;;;;;;18.25;87.78;101433.63;5067295;28;20790;-66
2023/10/02 07:09:10;;;;;;;39.97;17.23;;;;;;;18.36;87.58;101440.41;5045264;28;20052;-66
2023/10/02 07:11:51;;;;;;;36.40;17.63;;;;;;;18.43;86.30;101440.66;5070039;28;20051;-67
2023/10/02 07:15:10;;;;;;;40.83;18.38;;;;;;;18.42;86.34;101441.81;5044511;28;20060;-67
2023/10/02 07:18:12;;;;;;;40.15;17.75;;;;;;;18.39;86.11;101443.31;4992536;28;20058;-65
2023/10/02 07:20:43;;;;;;;35.92;16.80;;;;;;;18.42;85.71;101430.66;5009106;28;20058;-64
2023/10/02 07:23:19;;;;;;;39.33;18.50;;;;;;;18.50;85.50;101438.06;5003071;28;20060;-64
2023/10/02 07:25:52;;;;;;;37.17;17.50;;;;;;;18.65;84.83;101442.97;5003162;28;20054;-65
2023/10/02 07:28:23;;;;;;;46.45;18.27;;;;;;;18.69;83.62;101429.94;4987357;28;20057;-65
2023/10/02 07:30:50;;;;;;;;;;;;;;;18.73;83.64;101433.66;5006457;28;20054;-64
2023/10/02 07:33:20;;;;;;;36.08;17.42;;;;;;;18.93;82.66;101438.28;4987440;28;19921;-64
2023/10/02 07:35:54;;;;;;;;;;;;;;;18.80;82.44;101433.88;4989000;28;20489;-65
2023/10/02 07:38:30;;;;;;;41.97;18.30;;;;;;;18.99;82.32;101434.88;5006110;28;19922;-64
2023/10/02 07:41:06;;;;;;;35.92;17.23;;;;;;;18.97;81.50;101434.41;5004618;28;20049;-65
2023/10/02 07:43:34;;;;;;;36.28;17.98;;;;;;;19.28;80.80;101424.56;5001769;28;20072;-65
2023/10/02 07:46:14;;;;;;;38.47;18.55;;;;;;;19.22;80.68;101423.19;5004097;28;20465;-64
2023/10/02 07:48:43;;;;;;;;;;;;;;;19.02;81.14;101433.38;5032699;28;20421;-64
2023/10/02 07:51:10;;;;;;;43.20;18.65;;;;;;;19.11;80.41;101430.44;5051209;28;19920;-63
2023/10/02 07:53:39;;;;;;;38.72;16.58;;;;;;;19.00;81.30;101430.91;5053869;28;20055;-64
2023/10/02 07:56:08;;;;;;;39.72;18.45;;;;;;;19.25;79.02;101431.66;5049689;28;20059;-64
2023/10/02 07:58:35;;;;;;;40.67;19.40;;;;;;;19.37;79.47;101430.84;5052910;28;20056;-65
2023/10/02 08:01:11;;;;;;;38.90;19.90;;;;;;;19.63;78.97;101431.19;5071407;28;20064;-64
2023/10/02 08:03:49;;;;;;;40.78;18.75;;;;;;;19.77;78.01;101429.59;5070591;28;20063;-64
2023/10/02 08:09:37;;;;;;;45.97;19.52;;;;;;;19.87;76.72;101431.88;5057517;28;20052;-65
2023/10/02 08:12:08;;;;;;;42.65;19.30;;;;;;;20.03;75.96;101431.91;5063351;28;20068;-64
2023/10/02 08:14:41;;;;;;;43.42;18.60;;;;;;;20.11;75.35;101433.69;5056417;28;20052;-67
2023/10/02 08:17:27;;;;;;;40.33;18.55;;;;;;;20.11;74.93;101437.31;5074132;28;20047;-64
2023/10/02 08:19:56;;;;;;;43.42;19.85;;;;;;;20.20;74.45;101423.19;5072186;28;20494;-64
2023/10/02 08:22:44;;;;;;;38.53;19.50;;;;;;;20.30;73.72;101433.00;5074318;28;20051;-64
2023/10/02 08:25:13;;;;;;;46.20;20.35;;;;;;;19.98;74.51;101432.13;5074759;28;20044;-64
2023/10/02 08:27:43;;;;;;;39.73;19.23;;;;;;;19.89;74.86;101429.53;5072363;28;20045;-63
2023/10/02 08:30:27;;;;;;;44.20;19.77;;;;;;;19.57;75.55;101432.63;5068118;28;20067;-64
2023/10/02 08:33:06;;;;;;;46.35;19.15;;;;;;;19.85;74.93;101433.41;5041400;28;20048;-63
2023/10/02 08:36:13;;;;;;;50.08;21.25;;;;;;;19.78;75.39;101436.81;5072052;28;20493;-64
2023/10/02 08:38:49;;;;;;;42.78;19.33;;;;;;;19.98;74.87;101443.31;5048007;28;20055;-65
2023/10/02 08:41:28;;;;;;;41.40;20.00;;;;;;;20.20;73.63;101441.94;5057320;28;20060;-63
2023/10/02 08:43:58;;;;;;;53.42;25.08;;;;;;;20.39;72.62;101436.44;5054630;28;20049;-64
2023/10/02 08:46:31;;;;;;;43.17;20.23;;;;;;;20.60;71.86;101434.16;5074269;28;20052;-64
2023/10/02 08:49:00;;;;;;;41.80;19.65;;;;;;;20.41;71.88;101434.09;5073290;28;20044;-65
2023/10/02 08:51:35;;;;;;;42.63;19.48;;;;;;;20.38;72.09;101424.41;5074867;28;20061;-65
2023/10/02 08:54:05;;;;;;;45.70;20.25;;;;;;;20.64;71.39;101423.88;5069041;28;20068;-65
2023/10/02 08:56:48;;;;;;;37.33;18.33;;;;;;;20.79;70.73;101423.00;5075543;28;20051;-64
2023/10/02 08:59:18;;;;;;;44.33;22.30;;;;;;;20.77;70.28;101414.16;5072287;28;20040;-64
2023/10/02 09:01:48;;;;;;;48.08;19.73;;;;;;;20.77;70.23;101426.19;5057784;28;20503;-65
2023/10/02 09:04:22;;;;;;;46.10;22.13;;;;;;;20.96;70.10;101426.22;5060039;28;20053;-65
2023/10/02 09:06:53;;;;;;;41.83;19.60;;;;;;;21.28;68.48;101421.34;5065256;28;20036;-64
2023/10/02 09:09:26;;;;;;;37.53;19.35;;;;;;;21.24;68.46;101423.25;5071201;28;20503;-63
2023/10/02 09:11:58;;;;;;;39.10;19.23;;;;;;;20.99;68.63;101414.31;5072834;28;20393;-64
2023/10/02 09:17:19;;;;;;;37.72;19.58;;;;;;;21.34;68.21;101417.03;5070057;28;20048;-64
2023/10/02 09:20:07;;;;;;;45.30;20.20;;;;;;;21.57;66.56;101417.09;5071656;28;20055;-64
2023/10/02 09:22:44;;;;;;;43.17;20.60;;;;;;;21.75;65.90;101416.28;5072848;28;20059;-64
2023/10/02 09:25:18;;;;;;;42.08;20.58;;;;;;;21.65;65.58;101410.47;5080734;28;20054;-64
2023/10/02 09:27:56;;;;;;;42.17;21.45;;;;;;;21.85;65.00;101412.06;5072586;28;20747;-65
2023/10/02 09:30:49;;;;;;;42.50;20.98;;;;;;;21.65;65.33;101411.28;5050319;28;20056;-64
2023/10/02 09:33:22;;;;;;;46.77;22.43;;;;;;;21.67;64.62;101416.53;5070264;28;20527;-65
2023/10/02 09:36:17;;;;;;;41.67;20.83;;;;;;;21.81;64.29;101403.59;5065548;28;20044;-65
2023/10/02 09:39:31;;;;;;;43.45;21.23;;;;;;;21.84;64.19;101393.63;5065160;28;20048;-67
2023/10/02 09:42:33;;;;;;;40.15;19.95;;;;;;;21.64;64.59;101404.03;5046619;28;20052;-69
2023/10/02 09:45:15;;;;;;;36.65;19.48;;;;;;;22.00;63.39;101405.56;5061773;28;20052;-65
2023/10/02 09:47:42;;;;;;;43.15;20.77;;;;;;;21.97;62.99;101393.06;5059175;28;20051;-66
2023/10/02 09:51:06;;;;;;;41.58;21.40;;;;;;;22.02;62.88;101384.34;5065131;28;20044;-67
2023/10/02 09:54:02;;;;;;;;;;;;;;;21.93;63.42;101383.78;5054660;28;20060;-64
2023/10/02 09:56:38;;;;;;;43.83;21.30;;;;;;;21.94;63.30;101384.59;5064004;28;19931;-63
2023/10/02 09:59:19;;;;;;;44.67;20.85;;;;;;;22.07;63.12;101372.00;5056971;28;20046;-65
2023/10/02 10:02:08;;;;;;;42.90;20.65;;;;;;;22.44;62.14;101375.81;5076579;28;20049;-64
2023/10/02 10:08:18;;;;;;;48.63;20.70;;;;;;;22.39;61.72;101372.53;5074410;28;20047;-66
2023/10/02 10:11:14;;;;;;;39.83;20.73;;;;;;;22.54;61.64;101368.75;5072431;28;20690;-66
2023/10/02 10:13:59;;;;;;;44.15;20.58;;;;;;;22.66;61.69;101360.94;5071819;28;20073;-65
2023/10/02 10:16:33;;;;;;;43.85;20.17;;;;;;;22.69;61.13;101364.97;5071773;28;20043;-66
2023/10/02 10:22:03;;;;;;;42.50;21.00;;;;;;;22.62;61.09;101354.47;5073448;28;20052;-65
2023/10/02 10:24:33;;;;;;;38.13;20.63;;;;;;;22.94;60.58;101350.09;5054937;28;20072;-65
2023/10/02 10:27:02;;;;;;;43.85;20.05;;;;;;;22.98;60.70;101347.34;5074107;28;20056;-66
2023/10/02 10:29:42;;;;;;;43.10;20.90;;;;;;;23.32;59.56;101344.16;5052231;28;20418;-64
2023/10/02 10:32:24;;;;;;;50.63;23.58;;;;;;;23.16;59.57;101332.31;5072191;28;20069;-66
2023/10/02 10:35:17;;;;;;;48.72;25.35;;;;;;;23.32;59.23;101341.34;5072408;28;20418;-66
2023/10/02 10:37:46;;;;;;;49.17;22.48;;;;;;;23.24;nan;101345.22;5053541;28;20056;-65
2023/10/02 10:40:50;;;;;;;45.38;24.90;;;;;;;23.28;58.98;101334.06;5062925;28;20105;-66
2023/10/02 10:43:18;;;;;;;41.03;23.85;;;;;;;23.25;59.60;101327.19;5074934;28;20195;-67
2023/10/02 10:45:48;;;;;;;46.45;23.00;;;;;;;23.54;59.13;101327.53;5073211;28;20506;-64
2023/10/02 10:48:40;;;;;;;36.08;20.63;;;;;;;23.64;58.78;101324.00;5068564;28;20041;-65
2023/10/02 10:51:21;;;;;;;58.95;32.90;;;;;;;23.72;58.06;101326.50;5041189;28;20749;-66
2023/10/02 10:53:52;;;;;;;41.05;22.20;;;;;;;23.67;57.88;101323.22;5072540;28;20060;-65
2023/10/02 10:56:34;;;;;;;40.45;21.40;;;;;;;23.45;58.96;101321.41;5056406;28;20053;-67
2023/10/02 10:59:35;;;;;;;40.40;21.33;;;;;;;23.55;59.36;101318.69;5038658;28;20028;-67
2023/10/02 11:02:18;;;;;;;40.13;21.60;;;;;;;23.57;59.06;101326.75;5069623;28;20033;-65
2023/10/02 11:04:47;;;;;;;39.10;20.63;;;;;;;23.76;58.23;101304.03;5050308;28;20060;-65
2023/10/02 11:07:25;;;;;;;39.77;20.40;;;;;;;23.79;58.23;101292.00;5054182;28;20044;-64
2023/10/02 11:13:51;;;;;;;42.33;20.77;;;;;;;23.93;57.40;101278.84;5062788;28;20048;-67
2023/10/02 11:16:37;;;;;;;39.78;21.58;;;;;;;23.94;57.38;101280.44;5039741;28;20048;-65
2023/10/02 11:19:55;;;;;;;38.63;20.23;;;;;;;24.19;56.93;101275.03;5060308;28;20685;-66
2023/10/02 11:22:21;;;;;;;42.03;21.38;;;;;;;24.17;56.66;101277.44;5057036;28;20060;-65
2023/10/02 11:24:55;;;;;;;41.92;21.75;;;;;;;24.18;55.68;101273.44;5049815;28;20048;-66
2023/10/02 11:27:23;;;;;;;42.33;21.27;;;;;;;24.30;56.02;101273.91;5066962;28;20053;-65
2023/10/02 11:30:01;;;;;;;40.22;21.60;;;;;;;24.24;56.43;101274.66;5067776;28;20430;-66
2023/10/02 11:32:48;;;;;;;40.88;22.02;;;;;;;24.43;55.62;101268.75;5048763;28;20052;-66
2023/10/02 11:35:17;;;;;;;39.78;22.90;;;;;;;24.62;55.12;101279.72;5070467;28;20509;-66
2023/10/02 11:37:46;;;;;;;38.03;21.00;;;;;;;24.83;54.67;101277.03;5073779;28;20045;-67
2023/10/02 11:40:14;;;;;;;40.10;22.13;;;;;;;24.90;54.28;101279.88;5069755;28;20045;-65
2023/10/02 11:42:42;;;;;;;36.40;21.02;;;;;;;25.13;53.98;101276.72;5065789;28;20048;-64
2023/10/02 11:45:10;;;;;;;37.67;20.70;;;;;;;25.07;53.53;101270.66;5066324;28;20047;-64
2023/10/02 11:47:38;;;;;;;55.42;32.65;;;;;;;25.10;53.49;101269.06;5046605;28;20044;-63
2023/10/02 11:50:06;;;;;;;52.78;30.33;;;;;;;24.87;53.93;101265.78;5062789;28;20043;-65
2023/10/02 11:52:33;;;;;;;41.33;23.00;;;;;;;24.95;54.42;101261.78;5062923;28;20071;-64
2023/10/02 11:55:18;;;;;;;40.70;21.35;;;;;;;25.28;53.29;101253.78;5053382;28;20570;-65
2023/10/02 11:58:28;;;;;;;42.38;21.75;;;;;;;25.12;53.36;101250.53;5071273;28;20045;-66
2023/10/02 12:01:17;;;;;;;39.95;20.67;;;;;;;25.34;52.84;101245.75;5070994;28;20037;-65
2023/10/02 12:03:47;;;;;;;39.08;21.23;;;;;;;25.04;53.95;101242.47;5071876;28;20044;-64
2023/10/02 12:06:16;;;;;;;47.65;25.65;;;;;;;25.40;52.92;101247.81;5066933;28;20048;-65
2023/10/02 12:08:49;;;;;;;41.22;23.23;;;;;;;25.40;52.49;101242.16;5054063;28;20045;-65
2023/10/02 12:11:16;;;;;;;42.90;22.25;;;;;;;25.47;52.63;101239.34;5075573;28;20407;-65
2023/10/02 12:13:44;;;;;;;41.50;21.52;;;;;;;25.65;51.73;101232.94;5069627;28;20395;-65
2023/10/02 12:16:12;;;;;;;37.75;21.38;;;;;;;25.75;51.71;101227.25;5069059;28;20053;-66
2023/10/02 12:18:43;;;;;;;39.95;20.50;;;;;;;25.76;51.40;101217.59;5070376;28;20060;-65
2023/10/02 12:21:14;;;;;;;42.05;20.45;;;;;;;25.69;51.36;101217.59;5071822;28;20055;-65
2023/10/02 12:23:43;;;;;;;37.08;20.58;;;;;;;25.59;52.03;101218.41;5036503;28;20730;-64
2023/10/02 12:26:17;;;;;;;37.83;20.40;;;;;;;25.75;51.32;101210.31;5049071;28;20049;-66
2023/10/02 12:28:44;;;;;;;38.40;20.55;;;;;;;25.84;50.76;101216.38;5062695;28;20048;-65
2023/10/02 12:31:26;;;;;;;38.28;19.73;;;;;;;25.83;50.88;101211.94;5034320;28;20435;-65
2023/10/02 12:34:13;;;;;;;36.63;20.33;;;;;;;25.70;50.77;101210.72;5048837;28;20060;-66
2023/10/02 12:36:44;;;;;;;41.17;21.38;;;;;;;26.00;50.18;101210.28;5050268;28;20048;-65
2023/10/02 12:39:15;;;;;;;37.40;21.45;;;;;;;26.07;50.31;101197.00;5071453;28;20064;-65